Time;durP1;ratioP1;P1;durP2;ratioP2;P2;SDS_P1;SDS_P2;PMS_P1;PMS_P2;Temp;Humidity;BMP_temperature;BMP_pressure;BME280_temperature;BME280_humidity;BME280_pressure;Samples;Min_cycle;Max_cycle;Signal;HPM_P1;HPM_P2
2021/09/25 00:00:02;;;;;;;19.30;8.90;;;;;;;;;;5075587;28;20460;-70
2021/09/25 00:02:29;;;;;;;10.63;9.33;;;;;;;;;;5075614;28;20448;-70
2021/09/25 00:04:57;;;;;;;12.97;9.30;;;;;;;;;;5075967;28;20941;-70
2021/09/25 00:07:24;;;;;;;9.33;8.40;;;;;;;;;;5075876;28;20938;-70
2021/09/25 00:09:51;;;;;;;10.63;9.27;;;;;;;;;;5075835;28;20924;-70
2021/09/25 00:12:19;;;;;;;10.40;8.87;;;;;;;;;;5075708;28;20444;-74
2021/09/25 00:14:47;;;;;;;9.93;8.47;;;;;;;;;;5075677;28;20441;-70
2021/09/25 00:17:15;;;;;;;11.10;8.03;;;;;;;;;;5075680;28;20533;-70
2021/09/25 00:19:43;;;;;;;9.90;8.60;;;;;;;;;;5076032;28;20447;-70
2021/09/25 00:22:10;;;;;;;9.30;8.40;;;;;;;;;;5075288;28;20470;-70
2021/09/25 00:24:37;;;;;;;9.77;7.90;;;;;;;;;;5075182;28;20529;-70
2021/09/25 00:27:04;;;;;;;10.57;9.03;;;;;;;;;;5075802;28;20789;-70
2021/09/25 00:29:32;;;;;;;13.17;9.60;;;;;;;;;;5074981;28;20478;-71
2021/09/25 00:32:00;;;;;;;10.60;8.60;;;;;;;;;;5075356;28;20480;-71
2021/09/25 00:34:28;;;;;;;10.30;8.10;;;;;;;;;;5076052;28;20443;-70
2021/09/25 00:36:55;;;;;;;9.07;8.13;;;;;;;;;;5075029;28;21057;-70
2021/09/25 00:39:22;;;;;;;9.70;8.50;;;;;;;;;;5075341;28;20441;-70
2021/09/25 00:41:49;;;;;;;9.47;8.50;;;;;;;;;;5075060;28;20549;-70
2021/09/25 00:44:16;;;;;;;9.80;8.80;;;;;;;;;;5074836;28;20927;-70
2021/09/25 00:46:44;;;;;;;11.73;9.00;;;;;;;;;;5075117;28;20439;-71
2021/09/25 00:49:17;;;;;;;10.33;9.33;;;;;;;;;;5075061;28;20450;-71
2021/09/25 00:51:44;;;;;;;15.50;8.80;;;;;;;;;;5075057;28;20467;-70
2021/09/25 00:54:11;;;;;;;20.30;9.03;;;;;;;;;;5075154;28;20443;-71
2021/09/25 00:56:39;;;;;;;12.30;9.50;;;;;;;;;;5074998;28;20443;-71
2021/09/25 00:59:06;;;;;;;9.33;7.60;;;;;;;;;;5074900;28;20446;-71
2021/09/25 01:01:33;;;;;;;9.70;8.30;;;;;;;;;;5075183;28;20444;-71
2021/09/25 01:04:01;;;;;;;12.83;8.37;;;;;;;;;;5074709;28;20437;-70
2021/09/25 01:06:29;;;;;;;10.47;8.23;;;;;;;;;;5074392;28;21037;-70
2021/09/25 01:08:56;;;;;;;11.00;9.77;;;;;;;;;;5075044;28;20445;-70
2021/09/25 01:11:24;;;;;;;8.73;7.83;;;;;;;;;;5075071;28;20473;-70
2021/09/25 01:13:51;;;;;;;11.73;8.67;;;;;;;;;;5074802;28;20926;-70
2021/09/25 01:16:18;;;;;;;12.43;9.40;;;;;;;;;;5074494;28;20926;-70
2021/09/25 01:18:45;;;;;;;11.33;9.10;;;;;;;;;;5074420;28;20533;-70
2021/09/25 01:21:14;;;;;;;11.73;9.60;;;;;;;;;;5075027;28;20520;-70
2021/09/25 01:23:41;;;;;;;9.93;8.33;;;;;;;;;;5074424;28;20446;-71
2021/09/25 01:26:08;;;;;;;12.00;9.10;;;;;;;;;;5074685;28;20911;-71
2021/09/25 01:28:37;;;;;;;13.33;9.73;;;;;;;;;;5074029;28;20477;-71
2021/09/25 01:31:05;;;;;;;11.03;9.00;;;;;;;;;;5073899;28;20473;-71
2021/09/25 01:33:34;;;;;;;12.57;8.77;;;;;;;;;;5074313;28;20885;-69
2021/09/25 01:36:02;;;;;;;9.60;8.60;;;;;;;;;;5073813;28;20447;-70
2021/09/25 01:38:30;;;;;;;9.20;8.20;;;;;;;;;;5073565;28;20447;-71
2021/09/25 01:40:58;;;;;;;12.30;9.00;;;;;;;;;;5073669;28;20449;-70
2021/09/25 01:43:25;;;;;;;16.77;9.80;;;;;;;;;;5074280;28;20442;-70
2021/09/25 01:45:52;;;;;;;12.30;9.70;;;;;;;;;;5074271;28;20529;-70
2021/09/25 01:48:20;;;;;;;10.03;8.60;;;;;;;;;;5073890;28;20504;-70
2021/09/25 01:50:47;;;;;;;9.47;8.20;;;;;;;;;;5073459;28;20576;-70
2021/09/25 01:53:14;;;;;;;12.37;8.93;;;;;;;;;;5073504;28;20501;-70
2021/09/25 01:55:43;;;;;;;11.10;9.00;;;;;;;;;;5073787;28;20438;-70
2021/09/25 01:58:10;;;;;;;11.67;9.17;;;;;;;;;;5073900;28;20455;-70
2021/09/25 02:00:38;;;;;;;11.83;8.60;;;;;;;;;;5074550;28;20443;-70
2021/09/25 02:03:07;;;;;;;17.20;10.50;;;;;;;;;;5073719;28;20441;-70
2021/09/25 02:05:34;;;;;;;12.90;9.90;;;;;;;;;;5073878;28;20447;-70
2021/09/25 02:08:03;;;;;;;12.63;9.70;;;;;;;;;;5073309;28;20440;-71
2021/09/25 02:10:30;;;;;;;12.33;9.90;;;;;;;;;;5073775;28;20455;-71
2021/09/25 02:12:59;;;;;;;13.70;10.23;;;;;;;;;;5073616;28;20441;-70
2021/09/25 02:15:26;;;;;;;14.00;9.03;;;;;;;;;;5073705;28;20447;-70
2021/09/25 02:17:53;;;;;;;11.10;9.43;;;;;;;;;;5073713;28;20472;-70
2021/09/25 02:20:21;;;;;;;11.77;8.17;;;;;;;;;;5073489;28;20486;-70
2021/09/25 02:22:48;;;;;;;14.63;8.90;;;;;;;;;;5074665;28;20448;-70
2021/09/25 02:25:16;;;;;;;11.83;8.83;;;;;;;;;;5073117;28;20527;-70
2021/09/25 02:27:43;;;;;;;9.80;8.00;;;;;;;;;;5073813;28;20443;-71
2021/09/25 02:30:14;;;;;;;10.60;8.40;;;;;;;;;;5073556;28;20476;-70
2021/09/25 02:32:41;;;;;;;12.60;8.70;;;;;;;;;;5073386;28;20477;-70
2021/09/25 02:35:09;;;;;;;10.30;8.90;;;;;;;;;;5073130;28;20948;-71
2021/09/25 02:37:36;;;;;;;13.57;8.90;;;;;;;;;;5073080;28;20945;-70
2021/09/25 02:40:03;;;;;;;10.23;8.43;;;;;;;;;;5073346;28;20451;-71
2021/09/25 02:42:31;;;;;;;11.83;7.90;;;;;;;;;;5073333;28;20452;-70
2021/09/25 02:44:58;;;;;;;14.87;9.10;;;;;;;;;;5073322;28;20441;-70
2021/09/25 02:47:26;;;;;;;10.67;8.60;;;;;;;;;;5073280;28;20469;-70
2021/09/25 02:49:54;;;;;;;9.50;7.77;;;;;;;;;;5073026;28;20445;-70
2021/09/25 02:52:21;;;;;;;11.13;8.37;;;;;;;;;;5077151;28;20472;-70
2021/09/25 02:54:48;;;;;;;9.50;8.20;;;;;;;;;;5077329;28;20443;-70
2021/09/25 02:57:15;;;;;;;10.50;8.33;;;;;;;;;;5076883;28;21046;-70
2021/09/25 02:59:42;;;;;;;9.77;8.03;;;;;;;;;;5077655;28;20923;-70
2021/09/25 03:02:10;;;;;;;10.43;7.80;;;;;;;;;;5085172;28;20467;-71
2021/09/25 03:04:38;;;;;;;11.20;7.20;;;;;;;;;;5098359;28;20439;-71
2021/09/25 03:07:07;;;;;;;8.87;7.93;;;;;;;;;;5097343;28;20444;-72
2021/09/25 03:09:34;;;;;;;10.77;8.00;;;;;;;;;;5097140;28;20949;-70
2021/09/25 03:12:02;;;;;;;11.97;8.03;;;;;;;;;;5097117;28;20587;-71
2021/09/25 03:14:29;;;;;;;12.40;8.20;;;;;;;;;;5097441;28;20810;-71
2021/09/25 03:16:56;;;;;;;9.97;8.40;;;;;;;;;;5096947;28;20904;-71
2021/09/25 03:19:24;;;;;;;9.80;7.80;;;;;;;;;;5097034;28;20441;-71
2021/09/25 03:21:52;;;;;;;12.70;9.23;;;;;;;;;;5096989;28;20453;-71
2021/09/25 03:24:19;;;;;;;11.90;8.67;;;;;;;;;;5096971;28;20437;-70
2021/09/25 03:26:47;;;;;;;9.43;7.97;;;;;;;;;;5096647;28;20442;-71
2021/09/25 03:29:14;;;;;;;13.33;9.27;;;;;;;;;;5096340;28;20499;-70
2021/09/25 03:31:41;;;;;;;11.77;9.23;;;;;;;;;;5096948;28;20481;-71
2021/09/25 03:34:08;;;;;;;15.03;9.63;;;;;;;;;;5096747;28;20440;-70
2021/09/25 03:36:35;;;;;;;15.80;9.40;;;;;;;;;;5097000;28;20441;-71
2021/09/25 03:39:04;;;;;;;13.13;9.30;;;;;;;;;;5096668;28;20439;-71
2021/09/25 03:41:31;;;;;;;16.30;9.80;;;;;;;;;;5096280;28;20541;-71
2021/09/25 03:43:58;;;;;;;11.00;8.50;;;;;;;;;;5096570;28;20528;-70
2021/09/25 03:46:26;;;;;;;11.80;8.90;;;;;;;;;;5096494;28;20448;-70
2021/09/25 03:48:53;;;;;;;17.17;8.83;;;;;;;;;;5096153;28;20545;-70
2021/09/25 03:51:20;;;;;;;13.70;9.90;;;;;;;;;;5096040;28;20477;-70
2021/09/25 03:53:47;;;;;;;17.23;9.03;;;;;;;;;;5096077;28;20935;-70
2021/09/25 03:56:16;;;;;;;12.80;9.83;;;;;;;;;;5096317;28;20439;-70
2021/09/25 03:58:44;;;;;;;10.23;8.20;;;;;;;;;;5095956;28;20949;-70
2021/09/25 04:01:12;;;;;;;11.60;9.30;;;;;;;;;;5095595;28;20443;-71
2021/09/25 04:03:39;;;;;;;13.07;8.23;;;;;;;;;;5095805;28;20445;-71
2021/09/25 04:06:06;;;;;;;12.13;9.37;;;;;;;;;;5096097;28;20441;-71
2021/09/25 04:08:34;;;;;;;12.27;9.07;;;;;;;;;;5096188;28;20435;-70
2021/09/25 04:11:01;;;;;;;10.30;8.37;;;;;;;;;;5095897;28;20443;-71
2021/09/25 04:13:30;;;;;;;10.87;9.77;;;;;;;;;;5095867;28;20486;-80
2021/09/25 04:15:57;;;;;;;10.70;8.47;;;;;;;;;;5095668;28;20445;-70
2021/09/25 04:18:24;;;;;;;11.77;8.43;;;;;;;;;;5095649;28;20941;-70
2021/09/25 04:20:52;;;;;;;11.70;8.87;;;;;;;;;;5095286;28;20445;-71
2021/09/25 04:23:19;;;;;;;13.23;9.07;;;;;;;;;;5095493;28;20958;-73
2021/09/25 04:25:49;;;;;;;11.33;8.63;;;;;;;;;;5096250;28;20444;-70
2021/09/25 04:28:18;;;;;;;13.17;9.47;;;;;;;;;;5095404;28;20934;-70
2021/09/25 04:30:49;;;;;;;11.50;9.63;;;;;;;;;;5095500;28;20429;-70
2021/09/25 04:33:17;;;;;;;9.60;8.63;;;;;;;;;;5095586;28;21052;-71
2021/09/25 04:35:44;;;;;;;13.20;9.17;;;;;;;;;;5095468;28;20448;-70
2021/09/25 04:38:11;;;;;;;11.93;9.50;;;;;;;;;;5095433;28;20452;-70
2021/09/25 04:40:40;;;;;;;12.40;9.47;;;;;;;;;;5094746;28;20441;-71
2021/09/25 04:43:09;;;;;;;10.70;9.10;;;;;;;;;;5094405;28;20451;-71
2021/09/25 04:45:36;;;;;;;10.10;8.90;;;;;;;;;;5094537;28;20440;-70
2021/09/25 04:48:07;;;;;;;10.40;9.07;;;;;;;;;;5094867;28;20799;-71
2021/09/25 04:50:34;;;;;;;12.30;9.00;;;;;;;;;;5094850;28;20460;-70
2021/09/25 04:53:08;;;;;;;10.63;9.50;;;;;;;;;;5094126;28;20556;-69
2021/09/25 04:55:35;;;;;;;11.30;10.13;;;;;;;;;;5094732;28;20445;-70
2021/09/25 04:58:04;;;;;;;13.70;9.50;;;;;;;;;;5094306;28;20445;-70
2021/09/25 05:00:32;;;;;;;12.13;10.30;;;;;;;;;;5094984;28;20449;-70
2021/09/25 05:03:01;;;;;;;11.60;9.90;;;;;;;;;;5094622;28;20611;-69
2021/09/25 05:05:31;;;;;;;12.10;9.43;;;;;;;;;;5094340;28;20945;-70
2021/09/25 05:07:58;;;;;;;12.40;9.70;;;;;;;;;;5094559;28;20438;-70
2021/09/25 05:10:25;;;;;;;14.33;11.40;;;;;;;;;;5094272;28;20445;-70
2021/09/25 05:12:52;;;;;;;13.60;10.77;;;;;;;;;;5093475;28;20474;-70
2021/09/25 05:15:20;;;;;;;13.63;8.97;;;;;;;;;;5094346;28;20984;-70
2021/09/25 05:17:47;;;;;;;16.40;9.60;;;;;;;;;;5093974;28;20935;-71
2021/09/25 05:20:14;;;;;;;14.83;9.13;;;;;;;;;;5094285;28;20964;-71
2021/09/25 05:22:43;;;;;;;15.97;9.80;;;;;;;;;;5094586;28;20448;-73
2021/09/25 05:25:10;;;;;;;14.73;10.40;;;;;;;;;;5094664;28;20466;-70
2021/09/25 05:27:37;;;;;;;14.33;10.30;;;;;;;;;;5094299;28;20436;-70
2021/09/25 05:30:05;;;;;;;20.17;10.83;;;;;;;;;;5094118;28;20469;-71
2021/09/25 05:32:32;;;;;;;13.47;9.60;;;;;;;;;;5093889;28;20477;-70
2021/09/25 05:34:59;;;;;;;14.40;9.20;;;;;;;;;;5093908;28;20443;-70
2021/09/25 05:37:27;;;;;;;15.33;10.07;;;;;;;;;;5094042;28;20434;-71
2021/09/25 05:39:55;;;;;;;11.23;9.03;;;;;;;;;;5094217;28;20445;-71
2021/09/25 05:42:23;;;;;;;12.33;10.57;;;;;;;;;;5093868;28;20743;-71
2021/09/25 05:44:50;;;;;;;12.67;9.03;;;;;;;;;;5092301;28;20438;-71
2021/09/25 05:47:18;;;;;;;15.20;9.30;;;;;;;;;;5092731;28;20449;-72
2021/09/25 05:49:46;;;;;;;13.17;10.00;;;;;;;;;;5094203;28;20447;-72
2021/09/25 05:52:14;;;;;;;16.07;10.70;;;;;;;;;;5093665;28;20478;-72
2021/09/25 05:54:41;;;;;;;12.50;9.50;;;;;;;;;;5094009;28;20450;-71
2021/09/25 05:57:10;;;;;;;11.90;9.50;;;;;;;;;;5093847;28;20457;-71
2021/09/25 05:59:38;;;;;;;13.93;9.97;;;;;;;;;;5094095;28;20452;-71
2021/09/25 06:02:05;;;;;;;12.00;9.37;;;;;;;;;;5093837;28;20425;-71
2021/09/25 06:04:33;;;;;;;11.73;9.43;;;;;;;;;;5093826;28;20439;-71
2021/09/25 06:07:00;;;;;;;13.60;9.47;;;;;;;;;;5083485;28;20970;-71
2021/09/25 06:09:28;;;;;;;14.93;10.50;;;;;;;;;;5073620;28;20795;-71
2021/09/25 06:11:55;;;;;;;14.93;8.97;;;;;;;;;;5073290;28;20442;-71
2021/09/25 06:14:24;;;;;;;11.87;8.80;;;;;;;;;;5073455;28;20919;-71
2021/09/25 06:16:51;;;;;;;13.07;9.50;;;;;;;;;;5073175;28;20444;-71
2021/09/25 06:19:18;;;;;;;11.80;9.07;;;;;;;;;;5073175;28;20964;-72
2021/09/25 06:21:45;;;;;;;15.30;9.20;;;;;;;;;;5073575;28;20439;-71
2021/09/25 06:24:13;;;;;;;13.37;9.90;;;;;;;;;;5073204;28;20445;-71
2021/09/25 06:26:40;;;;;;;17.23;10.60;;;;;;;;;;5073351;28;20451;-71
2021/09/25 06:29:08;;;;;;;13.97;10.10;;;;;;;;;;5072959;28;20495;-71
2021/09/25 06:31:36;;;;;;;14.40;9.00;;;;;;;;;;5073003;28;20446;-72
2021/09/25 06:34:03;;;;;;;14.10;9.27;;;;;;;;;;5073341;28;20475;-71
2021/09/25 06:36:32;;;;;;;11.87;9.10;;;;;;;;;;5073290;28;20454;-71
2021/09/25 06:39:00;;;;;;;12.90;9.53;;;;;;;;;;5072989;28;20446;-71
2021/09/25 06:41:27;;;;;;;11.20;9.83;;;;;;;;;;5073521;28;20457;-72
2021/09/25 06:43:55;;;;;;;12.87;9.43;;;;;;;;;;5072918;28;20447;-72
2021/09/25 06:46:22;;;;;;;12.20;9.67;;;;;;;;;;5073364;28;20448;-71
2021/09/25 06:48:50;;;;;;;11.07;8.40;;;;;;;;;;5073634;28;20458;-71
2021/09/25 06:51:18;;;;;;;12.50;9.20;;;;;;;;;;5072719;28;20455;-71
2021/09/25 06:53:45;;;;;;;12.77;9.30;;;;;;;;;;5073461;28;20993;-71
2021/09/25 06:56:13;;;;;;;11.60;9.33;;;;;;;;;;5074733;28;20530;-72
2021/09/25 06:58:40;;;;;;;16.87;9.20;;;;;;;;;;5091452;28;20518;-71
2021/09/25 07:01:07;;;;;;;11.10;8.87;;;;;;;;;;5092524;28;20421;-72
2021/09/25 07:03:34;;;;;;;10.77;8.20;;;;;;;;;;5092242;28;20436;-71
2021/09/25 07:06:03;;;;;;;15.47;9.50;;;;;;;;;;5092567;28;20442;-71
2021/09/25 07:08:30;;;;;;;12.80;8.40;;;;;;;;;;5088974;28;20440;-71
2021/09/25 07:10:57;;;;;;;14.33;9.20;;;;;;;;;;5092803;28;20530;-70
2021/09/25 07:13:24;;;;;;;13.63;9.97;;;;;;;;;;5092458;28;20474;-70
2021/09/25 07:15:52;;;;;;;11.97;8.73;;;;;;;;;;5093037;28;20437;-70
2021/09/25 07:18:20;;;;;;;13.30;8.97;;;;;;;;;;5093146;28;20447;-70
2021/09/25 07:20:47;;;;;;;13.50;9.33;;;;;;;;;;5092866;28;20440;-72
2021/09/25 07:23:16;;;;;;;11.77;8.63;;;;;;;;;;5093101;28;20440;-72
2021/09/25 07:25:44;;;;;;;14.30;9.30;;;;;;;;;;5093035;28;20563;-73
2021/09/25 07:28:12;;;;;;;13.80;8.00;;;;;;;;;;5092710;28;20474;-73
2021/09/25 07:30:41;;;;;;;12.03;8.60;;;;;;;;;;5092485;28;20459;-73
2021/09/25 07:33:08;;;;;;;11.30;8.90;;;;;;;;;;5092447;28;20989;-73
2021/09/25 07:35:36;;;;;;;12.10;8.60;;;;;;;;;;5092632;28;20469;-72
2021/09/25 07:38:03;;;;;;;12.13;8.27;;;;;;;;;;5095996;28;20863;-73
2021/09/25 07:40:32;;;;;;;13.67;9.40;;;;;;;;;;5076264;28;20839;-73
2021/09/25 07:42:59;;;;;;;14.20;9.43;;;;;;;;;;5076008;28;20460;-73
2021/09/25 07:45:27;;;;;;;14.80;9.10;;;;;;;;;;5075992;28;20444;-73
2021/09/25 07:47:54;;;;;;;11.17;8.97;;;;;;;;;;5076703;28;20441;-73
2021/09/25 07:50:21;;;;;;;19.03;9.97;;;;;;;;;;5076623;28;20491;-74
2021/09/25 07:52:49;;;;;;;16.40;9.70;;;;;;;;;;5075737;28;20472;-73
2021/09/25 07:55:16;;;;;;;18.27;9.60;;;;;;;;;;5075760;28;20447;-73
2021/09/25 07:57:45;;;;;;;16.20;9.33;;;;;;;;;;5076068;28;20590;-73
2021/09/25 08:00:16;;;;;;;13.53;9.07;;;;;;;;;;5076241;28;20450;-73
2021/09/25 08:02:43;;;;;;;12.20;9.27;;;;;;;;;;5075593;28;20953;-72
2021/09/25 08:05:11;;;;;;;17.50;9.77;;;;;;;;;;5076324;28;20466;-73
2021/09/25 08:07:39;;;;;;;12.20;9.20;;;;;;;;;;5075847;28;20441;-72
2021/09/25 08:10:07;;;;;;;12.97;10.00;;;;;;;;;;5075858;28;20447;-72
2021/09/25 08:12:34;;;;;;;13.73;9.13;;;;;;;;;;5075333;28;20439;-72
2021/09/25 08:15:02;;;;;;;10.03;8.70;;;;;;;;;;5075450;28;20446;-72
2021/09/25 08:17:30;;;;;;;14.60;8.50;;;;;;;;;;5076005;28;20948;-72
2021/09/25 08:19:57;;;;;;;12.87;9.10;;;;;;;;;;5075626;28;20532;-71
2021/09/25 08:22:24;;;;;;;13.23;7.97;;;;;;;;;;5081155;28;20458;-71
2021/09/25 08:24:51;;;;;;;13.23;9.60;;;;;;;;;;5080068;28;20446;-71
2021/09/25 08:27:19;;;;;;;13.40;9.83;;;;;;;;;;5090591;28;20443;-72
2021/09/25 08:29:46;;;;;;;11.13;8.30;;;;;;;;;;5096155;28;20468;-71
2021/09/25 08:32:15;;;;;;;11.57;9.13;;;;;;;;;;5080860;28;20461;-72
2021/09/25 08:34:42;;;;;;;11.10;8.17;;;;;;;;;;5074982;28;20563;-71
2021/09/25 08:37:10;;;;;;;12.77;8.93;;;;;;;;;;5075349;28;20475;-73
2021/09/25 08:39:38;;;;;;;13.20;9.10;;;;;;;;;;5075222;28;20440;-73
2021/09/25 08:42:06;;;;;;;12.03;9.40;;;;;;;;;;5088769;28;20462;-73
2021/09/25 08:44:33;;;;;;;10.77;9.63;;;;;;;;;;5095069;28;20435;-72
2021/09/25 08:47:00;;;;;;;15.43;8.93;;;;;;;;;;5096899;28;20435;-72
2021/09/25 08:49:28;;;;;;;11.70;8.40;;;;;;;;;;5096204;28;20445;-73
2021/09/25 08:51:56;;;;;;;13.80;9.53;;;;;;;;;;5095308;28;20442;-73
2021/09/25 08:54:24;;;;;;;13.10;9.23;;;;;;;;;;5094846;28;20567;-73
2021/09/25 08:56:52;;;;;;;14.43;8.87;;;;;;;;;;5094824;28;20530;-73
2021/09/25 08:59:19;;;;;;;10.80;9.37;;;;;;;;;;5080652;28;20538;-72
2021/09/25 09:01:48;;;;;;;13.60;10.60;;;;;;;;;;5074836;28;20445;-74
2021/09/25 09:04:17;;;;;;;13.07;9.27;;;;;;;;;;5080626;28;20452;-71
2021/09/25 09:06:48;;;;;;;12.70;9.03;;;;;;;;;;5094311;28;20517;-72
2021/09/25 09:09:16;;;;;;;11.23;9.03;;;;;;;;;;5094305;28;20792;-73
2021/09/25 09:11:43;;;;;;;12.27;9.73;;;;;;;;;;5094421;28;20439;-72
2021/09/25 09:14:14;;;;;;;10.87;9.63;;;;;;;;;;5094378;28;20842;-71
2021/09/25 09:16:41;;;;;;;15.67;9.67;;;;;;;;;;5094363;28;20425;-73
2021/09/25 09:19:08;;;;;;;13.67;9.37;;;;;;;;;;5094105;28;20448;-72
2021/09/25 09:21:36;;;;;;;16.00;9.20;;;;;;;;;;5094289;28;20921;-72
2021/09/25 09:24:07;;;;;;;14.17;9.73;;;;;;;;;;5093826;28;20971;-72
2021/09/25 09:26:35;;;;;;;12.93;9.33;;;;;;;;;;5093986;28;20447;-73
2021/09/25 09:29:03;;;;;;;14.03;9.87;;;;;;;;;;5093861;28;20484;-72
2021/09/25 09:31:30;;;;;;;13.70;9.60;;;;;;;;;;5094525;28;20441;-73
2021/09/25 09:33:57;;;;;;;13.43;9.17;;;;;;;;;;5093717;28;20469;-73
2021/09/25 09:36:26;;;;;;;17.60;10.60;;;;;;;;;;5094792;28;20532;-72
2021/09/25 09:38:55;;;;;;;15.53;8.93;;;;;;;;;;5094375;28;20463;-72
2021/09/25 09:41:25;;;;;;;12.93;9.90;;;;;;;;;;5093994;28;20454;-73
2021/09/25 09:43:53;;;;;;;12.37;8.83;;;;;;;;;;5093710;28;20481;-73
2021/09/25 09:46:20;;;;;;;14.03;8.80;;;;;;;;;;5094019;28;20449;-72
2021/09/25 09:48:48;;;;;;;11.83;9.13;;;;;;;;;;5093784;28;20446;-72
2021/09/25 09:51:16;;;;;;;12.73;9.10;;;;;;;;;;5093802;28;20984;-72
2021/09/25 09:53:44;;;;;;;10.43;8.80;;;;;;;;;;5093626;28;20478;-71
2021/09/25 09:56:18;;;;;;;12.43;10.60;;;;;;;;;;5094025;28;20440;-73
2021/09/25 09:58:56;;;;;;;11.30;9.80;;;;;;;;;;5093348;28;20450;-72
2021/09/25 10:01:24;;;;;;;9.80;8.53;;;;;;;;;;5093877;28;20441;-72
2021/09/25 10:03:51;;;;;;;12.93;9.70;;;;;;;;;;5093638;28;20437;-72
2021/09/25 10:06:18;;;;;;;13.57;9.40;;;;;;;;;;5093550;28;20531;-73
2021/09/25 10:08:46;;;;;;;10.80;8.53;;;;;;;;;;5093741;28;20528;-72
2021/09/25 10:11:16;;;;;;;11.13;8.77;;;;;;;;;;5091292;28;20508;-72
2021/09/25 10:13:43;;;;;;;11.27;8.90;;;;;;;;;;5072894;28;21059;-72
2021/09/25 10:16:13;;;;;;;13.13;9.40;;;;;;;;;;5073483;28;20445;-72
2021/09/25 10:18:40;;;;;;;14.07;9.70;;;;;;;;;;5073240;28;20529;-72
2021/09/25 10:21:09;;;;;;;12.63;9.00;;;;;;;;;;5073208;28;20449;-73
2021/09/25 10:23:38;;;;;;;11.53;8.97;;;;;;;;;;5073170;28;20447;-72
2021/09/25 10:26:05;;;;;;;17.80;9.73;;;;;;;;;;5073050;28;21016;-73
2021/09/25 10:28:32;;;;;;;10.03;8.43;;;;;;;;;;5073163;28;20488;-73
2021/09/25 10:31:00;;;;;;;11.80;9.47;;;;;;;;;;5073267;28;20423;-72
2021/09/25 10:33:28;;;;;;;12.27;8.80;;;;;;;;;;5072941;28;20493;-71
2021/09/25 10:35:55;;;;;;;16.30;9.40;;;;;;;;;;5093700;28;20448;-71
2021/09/25 10:38:33;;;;;;;15.50;9.20;;;;;;;;;;5094046;28;20447;-73
2021/09/25 10:41:14;;;;;;;14.53;9.13;;;;;;;;;;5094722;28;20441;-74
2021/09/25 10:43:42;;;;;;;15.03;9.70;;;;;;;;;;5093241;28;20426;-73
2021/09/25 10:46:11;;;;;;;11.70;8.23;;;;;;;;;;5093313;28;20439;-73
2021/09/25 10:48:47;;;;;;;17.00;9.07;;;;;;;;;;5093173;28;20447;-73
2021/09/25 10:51:16;;;;;;;12.47;7.90;;;;;;;;;;5093303;28;20434;-72
2021/09/25 10:53:44;;;;;;;10.07;7.60;;;;;;;;;;5092844;28;20483;-73
2021/09/25 10:56:16;;;;;;;11.27;8.67;;;;;;;;;;5092796;28;20448;-72
2021/09/25 10:58:43;;;;;;;14.80;8.97;;;;;;;;;;5093474;28;20442;-74
2021/09/25 11:01:11;;;;;;;10.80;8.07;;;;;;;;;;5093517;28;20455;-73
2021/09/25 11:03:59;;;;;;;12.27;8.17;;;;;;;;;;5093334;28;20637;-74
2021/09/25 11:06:32;;;;;;;12.67;8.70;;;;;;;;;;5087168;28;20456;-73
2021/09/25 11:09:01;;;;;;;11.33;8.03;;;;;;;;;;5092975;28;20434;-73
2021/09/25 11:11:32;;;;;;;8.47;7.57;;;;;;;;;;5093960;28;20477;-73
2021/09/25 11:14:08;;;;;;;10.83;8.50;;;;;;;;;;5096725;28;20986;-73
2021/09/25 11:16:59;;;;;;;11.57;8.40;;;;;;;;;;5096641;28;20437;-73
2021/09/25 11:19:37;;;;;;;10.37;7.90;;;;;;;;;;5076996;28;20540;-73
2021/09/25 11:22:06;;;;;;;10.67;7.07;;;;;;;;;;5096704;28;20973;-73
2021/09/25 11:24:34;;;;;;;10.83;7.70;;;;;;;;;;5096860;28;20442;-73
2021/09/25 11:27:02;;;;;;;12.40;7.87;;;;;;;;;;5096876;28;20440;-74
2021/09/25 11:29:30;;;;;;;9.50;7.30;;;;;;;;;;5096548;28;20485;-73
2021/09/25 11:32:05;;;;;;;7.77;6.17;;;;;;;;;;5096438;28;20538;-74
2021/09/25 11:34:39;;;;;;;7.83;6.20;;;;;;;;;;5096580;28;20530;-73
2021/09/25 11:37:07;;;;;;;10.10;6.50;;;;;;;;;;5096723;28;20506;-72
2021/09/25 11:39:42;;;;;;;6.37;4.80;;;;;;;;;;5097047;28;20438;-75
2021/09/25 11:42:11;;;;;;;8.43;5.80;;;;;;;;;;5096571;28;20540;-73
2021/09/25 11:44:41;;;;;;;10.40;5.60;;;;;;;;;;5096696;28;20528;-74
2021/09/25 11:47:09;;;;;;;10.30;5.63;;;;;;;;;;5096531;28;20445;-73
2021/09/25 11:49:36;;;;;;;5.60;5.10;;;;;;;;;;5096881;28;20434;-73
2021/09/25 11:52:04;;;;;;;11.50;6.10;;;;;;;;;;5096119;28;20453;-74
2021/09/25 11:54:33;;;;;;;8.20;6.10;;;;;;;;;;5096583;28;20568;-74
2021/09/25 11:57:00;;;;;;;7.43;6.33;;;;;;;;;;5096544;28;20524;-74
2021/09/25 11:59:27;;;;;;;5.73;5.13;;;;;;;;;;5096414;28;20444;-73
2021/09/25 12:01:55;;;;;;;6.07;5.23;;;;;;;;;;5096445;28;20436;-72
2021/09/25 12:04:37;;;;;;;7.13;5.50;;;;;;;;;;5095825;28;20438;-73
2021/09/25 12:07:06;;;;;;;11.20;5.47;;;;;;;;;;5095949;28;20936;-74
2021/09/25 12:09:41;;;;;;;5.20;4.70;;;;;;;;;;5095993;28;20438;-73
2021/09/25 12:12:08;;;;;;;5.90;5.07;;;;;;;;;;5095987;28;20439;-74
2021/09/25 12:14:42;;;;;;;8.13;4.80;;;;;;;;;;5094955;28;20486;-73
2021/09/25 12:17:09;;;;;;;7.20;4.80;;;;;;;;;;5095258;28;20425;-73
2021/09/25 12:19:37;;;;;;;7.20;5.50;;;;;;;;;;5095728;28;20442;-73
2021/09/25 12:22:05;;;;;;;6.03;5.20;;;;;;;;;;5095807;28;20441;-73
2021/09/25 12:24:32;;;;;;;8.00;5.80;;;;;;;;;;5095600;28;21017;-73
2021/09/25 12:27:01;;;;;;;7.13;5.97;;;;;;;;;;5095759;28;20445;-73
2021/09/25 12:29:35;;;;;;;6.40;5.47;;;;;;;;;;5095852;28;20904;-73
2021/09/25 12:32:02;;;;;;;5.57;4.63;;;;;;;;;;5095977;28;20782;-73
2021/09/25 12:34:30;;;;;;;7.57;6.03;;;;;;;;;;5095562;28;20475;-73
2021/09/25 12:36:59;;;;;;;6.93;4.73;;;;;;;;;;5096313;28;20448;-72
2021/09/25 12:39:27;;;;;;;6.20;5.10;;;;;;;;;;5094846;28;20500;-73
2021/09/25 12:41:55;;;;;;;7.13;5.10;;;;;;;;;;5094887;28;20446;-72
2021/09/25 12:44:24;;;;;;;6.77;4.50;;;;;;;;;;5094343;28;20450;-72
2021/09/25 12:46:52;;;;;;;8.80;5.00;;;;;;;;;;5094796;28;20465;-73
2021/09/25 12:49:23;;;;;;;7.70;4.60;;;;;;;;;;5095076;28;20450;-73
2021/09/25 12:51:52;;;;;;;5.40;4.90;;;;;;;;;;5083469;28;20452;-73
2021/09/25 12:54:21;;;;;;;4.70;4.30;;;;;;;;;;5087965;28;20481;-73
2021/09/25 12:56:49;;;;;;;5.80;4.87;;;;;;;;;;5087495;28;20480;-73
2021/09/25 12:59:17;;;;;;;5.83;5.23;;;;;;;;;;5074067;28;20495;-73
2021/09/25 13:01:49;;;;;;;5.60;4.40;;;;;;;;;;5078596;28;20435;-73
2021/09/25 13:04:20;;;;;;;11.43;4.83;;;;;;;;;;5074499;28;20775;-73
2021/09/25 13:06:48;;;;;;;6.13;4.57;;;;;;;;;;5087030;28;20441;-73
2021/09/25 13:09:16;;;;;;;7.73;4.53;;;;;;;;;;5074602;28;20918;-73
2021/09/25 13:11:58;;;;;;;9.53;4.90;;;;;;;;;;5094323;28;20474;-73
2021/09/25 13:14:29;;;;;;;8.73;7.80;;;;;;;;;;5090671;28;20495;-73
2021/09/25 13:16:57;;;;;;;5.97;5.37;;;;;;;;;;5074133;28;20425;-73
2021/09/25 13:19:25;;;;;;;5.47;4.87;;;;;;;;;;5074336;28;20535;-73
2021/09/25 13:21:52;;;;;;;4.57;4.10;;;;;;;;;;5074117;28;20538;-73
2021/09/25 13:24:20;;;;;;;5.93;4.53;;;;;;;;;;5073860;28;20452;-73
2021/09/25 13:26:47;;;;;;;6.43;4.90;;;;;;;;;;5074234;28;20439;-73
2021/09/25 13:29:14;;;;;;;6.43;5.30;;;;;;;;;;5073831;28;20472;-73
2021/09/25 13:31:42;;;;;;;7.47;5.33;;;;;;;;;;5074254;28;20456;-73
2021/09/25 13:34:10;;;;;;;6.90;5.10;;;;;;;;;;5073178;28;20447;-73
2021/09/25 13:36:37;;;;;;;5.57;5.03;;;;;;;;;;5073895;28;20446;-73
2021/09/25 13:39:05;;;;;;;6.20;4.67;;;;;;;;;;5073878;28;20528;-73
2021/09/25 13:41:32;;;;;;;5.57;5.13;;;;;;;;;;5073775;28;21029;-73
2021/09/25 13:43:59;;;;;;;7.50;5.80;;;;;;;;;;5088120;28;20823;-72
2021/09/25 13:46:26;;;;;;;6.00;5.40;;;;;;;;;;5093902;28;20446;-73
2021/09/25 13:48:53;;;;;;;5.23;4.73;;;;;;;;;;5093786;28;20966;-73
2021/09/25 13:51:22;;;;;;;8.30;5.27;;;;;;;;;;5093883;28;20453;-73
2021/09/25 13:53:49;;;;;;;7.00;5.40;;;;;;;;;;5093859;28;21000;-73
2021/09/25 13:56:16;;;;;;;7.57;6.57;;;;;;;;;;5094148;28;20506;-73
2021/09/25 13:58:44;;;;;;;7.77;5.67;;;;;;;;;;5093645;28;20545;-72
2021/09/25 14:01:11;;;;;;;6.70;6.00;;;;;;;;;;5093626;28;20477;-73
2021/09/25 14:03:38;;;;;;;8.40;6.00;;;;;;;;;;5093388;28;20439;-72
2021/09/25 14:06:07;;;;;;;8.00;5.37;;;;;;;;;;5093468;28;20483;-73
2021/09/25 14:08:36;;;;;;;7.20;4.80;;;;;;;;;;5093920;28;20454;-73
2021/09/25 14:11:03;;;;;;;5.77;5.20;;;;;;;;;;5093845;28;20451;-73
2021/09/25 14:13:30;;;;;;;6.03;4.70;;;;;;;;;;5093393;28;20529;-74
2021/09/25 14:15:58;;;;;;;6.00;5.43;;;;;;;;;;5094003;28;20830;-73
2021/09/25 14:18:25;;;;;;;6.50;5.17;;;;;;;;;;5085502;28;20445;-73
2021/09/25 14:20:52;;;;;;;6.23;5.30;;;;;;;;;;5073323;28;20434;-73
2021/09/25 14:23:20;;;;;;;6.83;4.30;;;;;;;;;;5072978;28;20554;-73
2021/09/25 14:25:48;;;;;;;6.20;5.57;;;;;;;;;;5073212;28;20539;-73
2021/09/25 14:28:16;;;;;;;5.97;5.30;;;;;;;;;;5073352;28;20444;-73
2021/09/25 14:30:43;;;;;;;7.47;5.10;;;;;;;;;;5074985;28;20762;-73
2021/09/25 14:33:11;;;;;;;6.10;4.77;;;;;;;;;;5073431;28;20446;-73
2021/09/25 14:35:38;;;;;;;5.67;4.90;;;;;;;;;;5072890;28;21054;-74
2021/09/25 14:38:06;;;;;;;5.37;4.87;;;;;;;;;;5072989;28;20451;-73